Vineyard Lady — WDI6483 — position and weather

sailwx.info

Track history (hours):
 
Tides and Currents Weather Stations Pressure Air Temp Water Temp Dewpoint Dewpoint Depression Visibility Wind Speed Wind Dir Waves Ship Positions

Vineyard Lady

Owner: Hyannis Harbor Tours, Hyannis, MA. More information available from US FCC via Universal Licensing System and Coast Guard Vessel Documentation Center.

Last reported at 2017-Oct-15 21:11 UTC. Time now 2017-Nov-25 06:11 UTC.
Position N 41°35' W 070°19'.
Warning: this ship's position is 40 days out of date.

Length 28 m.

Type: High speed craft. MMSI: 367719150.

Date/timePositionNaut miles runAvg speedWind from/ knotsBaromVisibWave heightAir tempDewpointWater temp
2017-Oct-15 21:11N 41°35' W 070°19'4 0.2
2017-Oct-14 21:48N 41°39' W 070°17'0 1.2
2017-Oct-14 21:30N 41°39' W 070°16'919.0
2017-Oct-14 21:01N 41°32' W 070°25'2 2.1
2017-Oct-14 19:54N 41°33' W 070°22'718.1
2017-Oct-14 19:30N 41°39' W 070°16'0 1.0
2017-Oct-14 19:00N 41°39' W 070°17'0 0.0
2017-Oct-14 18:30N 41°39' W 070°17'0 0.2
2017-Oct-14 18:00N 41°39' W 070°17'0 0.2
2017-Oct-14 17:30N 41°39' W 070°17'0 0.0
2017-Oct-14 17:00N 41°39' W 070°17'0 0.0
2017-Oct-14 16:30N 41°39' W 070°17'0 0.3
2017-Oct-14 16:00N 41°39' W 070°17'714.4
2017-Oct-14 15:30N 41°33' W 070°23'1 1.0
2017-Oct-14 14:20N 41°33' W 070°24'721.5
2017-Oct-14 14:01N 41°37' W 070°17'2 3.8
2017-Oct-14 13:30N 41°39' W 070°17'0 0.0
2017-Oct-14 13:00N 41°39' W 070°17'0 0.0
2017-Oct-14 12:30N 41°39' W 070°17'  
2017-Oct-11 19:27N 41°39' W 070°16'0 0.9
2017-Oct-11 19:00N 41°39' W 070°17'0 0.0
2017-Oct-11 18:30N 41°39' W 070°17'0 0.0
2017-Oct-11 18:00N 41°39' W 070°17'0 0.0
2017-Oct-11 17:30N 41°39' W 070°17'0 0.0
2017-Oct-11 17:00N 41°39' W 070°17'0 0.0
2017-Oct-10 21:47N 41°39' W 070°17'2 7.0
2017-Oct-10 21:30N 41°37' W 070°18'5 3.2
2017-Oct-10 19:56N 41°33' W 070°22'716.0
2017-Oct-10 19:30N 41°39' W 070°16'0 0.9
2017-Oct-10 19:00N 41°39' W 070°17'0 0.0
2017-Oct-10 18:31N 41°39' W 070°17'0 0.0
2017-Oct-10 18:00N 41°39' W 070°17'0 0.0
2017-Oct-10 17:31N 41°39' W 070°17'0 0.0
2017-Oct-10 17:00N 41°39' W 070°17'0 0.0
2017-Oct-10 16:30N 41°39' W 070°17'0 0.0
2017-Oct-10 16:00N 41°39' W 070°17'714.6
2017-Oct-10 15:30N 41°33' W 070°22'1 0.6
2017-Oct-10 14:00N 41°33' W 070°21'713.7
2017-Oct-10 13:30N 41°39' W 070°17'0 0.3
2017-Oct-10 13:00N 41°39' W 070°17'0 0.3
2017-Oct-10 12:30N 41°39' W 070°17'0 0.0
2017-Oct-09 21:57N 41°39' W 070°17'0 0.1
2017-Oct-09 21:30N 41°39' W 070°17'816.2
2017-Oct-09 21:01N 41°33' W 070°24'1 1.2
2017-Oct-09 19:50N 41°33' W 070°22'720.2
2017-Oct-09 19:30N 41°38' W 070°16'1 1.4
2017-Oct-09 19:00N 41°39' W 070°17'0 0.0
2017-Oct-09 18:30N 41°39' W 070°17'0 0.0
2017-Oct-09 18:00N 41°39' W 070°17'0 0.0
2017-Oct-09 17:30N 41°39' W 070°17'0 0.0
2017-Oct-09 17:00N 41°39' W 070°17'0 0.0
2017-Oct-09 16:30N 41°39' W 070°17'0 0.1
2017-Oct-09 16:00N 41°39' W 070°17'816.9
2017-Oct-09 15:31N 41°32' W 070°24'2 1.0
2017-Oct-09 13:57N 41°33' W 070°22'715.7
2017-Oct-09 13:31N 41°39' W 070°17'0 0.3
2017-Oct-09 13:00N 41°39' W 070°17'0 0.0
2017-Oct-09 12:30N 41°39' W 070°17'0 0.0
2017-Oct-08 00:01N 41°39' W 070°17'0 0.0
2017-Oct-08 00:00N 41°39' W 070°17'2 5.0
2017-Oct-07 23:30N 41°37' W 070°18'1121.8
2017-Oct-07 22:59N 41°29' W 070°29'6 6.1
2017-Oct-07 21:58N 41°33' W 070°23'716.2
2017-Oct-07 21:31N 41°39' W 070°17'2 3.1
2017-Oct-07 21:00N 41°37' W 070°17'6 1.2
2017-Oct-07 16:09N 41°33' W 070°22'321.8
2017-Oct-07 16:00N 41°35' W 070°19'4 8.0
2017-Oct-07 15:30N 41°39' W 070°17'510.8
2017-Oct-07 15:00N 41°34' W 070°20'1 0.6
2017-Oct-07 13:32N 41°34' W 070°21'120.3
2017-Oct-07 13:30N 41°35' W 070°21'510.4
2017-Oct-07 13:00N 41°39' W 070°17'0 0.0
2017-Oct-07 12:30N 41°39' W 070°17'  
Track history (hours):
 
Tides and Currents Weather Stations Pressure Air Temp Water Temp Dewpoint Dewpoint Depression Visibility Wind Speed Wind Dir Waves Ship Positions

Vineyard Lady

Owner: Hyannis Harbor Tours, Hyannis, MA. More information available from US FCC via Universal Licensing System and Coast Guard Vessel Documentation Center.

Last reported at 2017-Oct-15 21:11 UTC. Time now 2017-Nov-25 06:11 UTC.
Position N 41°35' W 070°19'.
Warning: this ship's position is 40 days out of date.

Length 28 m.

Type: High speed craft. MMSI: 367719150.

Date/timePositionNaut miles runAvg speedWind from/ knotsBaromVisibWave heightAir tempDewpointWater temp
2017-Oct-15 21:11N 41°35' W 070°19'4 0.2
2017-Oct-14 21:48N 41°39' W 070°17'0 1.2
2017-Oct-14 21:30N 41°39' W 070°16'919.0
2017-Oct-14 21:01N 41°32' W 070°25'2 2.1
2017-Oct-14 19:54N 41°33' W 070°22'718.1
2017-Oct-14 19:30N 41°39' W 070°16'0 1.0
2017-Oct-14 19:00N 41°39' W 070°17'0 0.0
2017-Oct-14 18:30N 41°39' W 070°17'0 0.2
2017-Oct-14 18:00N 41°39' W 070°17'0 0.2
2017-Oct-14 17:30N 41°39' W 070°17'0 0.0
2017-Oct-14 17:00N 41°39' W 070°17'0 0.0
2017-Oct-14 16:30N 41°39' W 070°17'0 0.3
2017-Oct-14 16:00N 41°39' W 070°17'714.4
2017-Oct-14 15:30N 41°33' W 070°23'1 1.0
2017-Oct-14 14:20N 41°33' W 070°24'721.5
2017-Oct-14 14:01N 41°37' W 070°17'2 3.8
2017-Oct-14 13:30N 41°39' W 070°17'0 0.0
2017-Oct-14 13:00N 41°39' W 070°17'0 0.0
2017-Oct-14 12:30N 41°39' W 070°17'  
2017-Oct-11 19:27N 41°39' W 070°16'0 0.9
2017-Oct-11 19:00N 41°39' W 070°17'0 0.0
2017-Oct-11 18:30N 41°39' W 070°17'0 0.0
2017-Oct-11 18:00N 41°39' W 070°17'0 0.0
2017-Oct-11 17:30N 41°39' W 070°17'0 0.0
2017-Oct-11 17:00N 41°39' W 070°17'0 0.0
2017-Oct-10 21:47N 41°39' W 070°17'2 7.0
2017-Oct-10 21:30N 41°37' W 070°18'5 3.2
2017-Oct-10 19:56N 41°33' W 070°22'716.0
2017-Oct-10 19:30N 41°39' W 070°16'0 0.9
2017-Oct-10 19:00N 41°39' W 070°17'0 0.0
2017-Oct-10 18:31N 41°39' W 070°17'0 0.0
2017-Oct-10 18:00N 41°39' W 070°17'0 0.0
2017-Oct-10 17:31N 41°39' W 070°17'0 0.0
2017-Oct-10 17:00N 41°39' W 070°17'0 0.0
2017-Oct-10 16:30N 41°39' W 070°17'0 0.0
2017-Oct-10 16:00N 41°39' W 070°17'714.6
2017-Oct-10 15:30N 41°33' W 070°22'1 0.6
2017-Oct-10 14:00N 41°33' W 070°21'713.7
2017-Oct-10 13:30N 41°39' W 070°17'0 0.3
2017-Oct-10 13:00N 41°39' W 070°17'0 0.3
2017-Oct-10 12:30N 41°39' W 070°17'0 0.0
2017-Oct-09 21:57N 41°39' W 070°17'0 0.1
2017-Oct-09 21:30N 41°39' W 070°17'816.2
2017-Oct-09 21:01N 41°33' W 070°24'1 1.2
2017-Oct-09 19:50N 41°33' W 070°22'720.2
2017-Oct-09 19:30N 41°38' W 070°16'1 1.4
2017-Oct-09 19:00N 41°39' W 070°17'0 0.0
2017-Oct-09 18:30N 41°39' W 070°17'0 0.0
2017-Oct-09 18:00N 41°39' W 070°17'0 0.0
2017-Oct-09 17:30N 41°39' W 070°17'0 0.0
2017-Oct-09 17:00N 41°39' W 070°17'0 0.0
2017-Oct-09 16:30N 41°39' W 070°17'0 0.1
2017-Oct-09 16:00N 41°39' W 070°17'816.9
2017-Oct-09 15:31N 41°32' W 070°24'2 1.0
2017-Oct-09 13:57N 41°33' W 070°22'715.7
2017-Oct-09 13:31N 41°39' W 070°17'0 0.3
2017-Oct-09 13:00N 41°39' W 070°17'0 0.0
2017-Oct-09 12:30N 41°39' W 070°17'0 0.0
2017-Oct-08 00:01N 41°39' W 070°17'0 0.0
2017-Oct-08 00:00N 41°39' W 070°17'2 5.0
2017-Oct-07 23:30N 41°37' W 070°18'1121.8
2017-Oct-07 22:59N 41°29' W 070°29'6 6.1
2017-Oct-07 21:58N 41°33' W 070°23'716.2
2017-Oct-07 21:31N 41°39' W 070°17'2 3.1
2017-Oct-07 21:00N 41°37' W 070°17'6 1.2
2017-Oct-07 16:09N 41°33' W 070°22'321.8
2017-Oct-07 16:00N 41°35' W 070°19'4 8.0
2017-Oct-07 15:30N 41°39' W 070°17'510.8
2017-Oct-07 15:00N 41°34' W 070°20'1 0.6
2017-Oct-07 13:32N 41°34' W 070°21'120.3
2017-Oct-07 13:30N 41°35' W 070°21'510.4
2017-Oct-07 13:00N 41°39' W 070°17'0 0.0
2017-Oct-07 12:30N 41°39' W 070°17'  

Dump ship's entire track history